Burns Pinion Ridge Reserve, California Weather observations

Data are for 10 minute period ending at time listed.
 Day   Time   Solar   Ave.   Ave.  Ave.  Vector  Max.   Baro.   Total    
  of    of     Rad.   Air    Rel.  Wind   Wind   Wind  Press.  Precip.   
Year   Day            Temp.  Hum.  Speed  Dir.   Gust                    
2016   (PST)  Kw/m2    F      %     mph   deg.    mph    mb.     in.     
-------------------------------------------------------------------------
 242   18:10   0.01   87.4    13    3.1   108     6.5   876.6    0.00 
 242   18:20   0.00   86.4    13    2.8   117     4.4   876.6    0.00 
 242   18:30   0.00   85.5    13    3.0   116     5.6   876.7    0.00 
 242   18:40   0.00   83.8    14    2.9   126     4.2   876.8    0.00 
 242   18:50   0.00   81.6    15    2.2   137     3.2   876.8    0.00 
 242   19:00   0.00   79.3    16    1.7   140     2.1   876.9    0.00 
 242   19:10   0.00   77.8    17    1.4   152     2.0   875.1    0.00 
 242   19:20   0.00   76.9    17    1.3   153     1.8   877.0    0.00 
 242   19:30   0.00   76.6    18    2.3   168     3.4   877.1    0.00 
 242   19:40   0.00   77.0    17    2.2   187     3.4   877.1    0.00 
 242   19:50   0.00   76.4    18    2.6   178     4.0   877.2    0.00 
 242   20:00   0.00   75.8    18    1.6   183     2.6   877.3    0.00 
 242   20:10   0.00   74.4    19    0.7   287     2.0   877.3    0.00 
 242   20:20   0.00   73.8    19    2.0   249     3.0   877.3    0.00 
 242   20:30   0.00   72.8    20    1.5   244     2.1   877.4    0.00 
 242   20:40   0.00   73.0    20    2.0   239     2.8   877.4    0.00 
 242   20:50   0.00   72.4    20    2.0   240     3.4   877.3    0.00 
 242   21:00   0.00   72.2    21    1.8   273     2.4   877.3    0.00 
 242   21:10   0.00   72.2    21    1.5   241     2.0   877.2    0.00 
 242   21:20   0.00   72.1    21    2.1   246     3.3   877.2    0.00 
 242   21:30   0.00   73.1    20    2.8   262     3.9   877.2    0.00 
 242   21:40   0.00   74.7    18    2.3   257     3.4   877.2    0.00 
 242   21:50   0.00   74.1    19    2.0   255     2.4   877.2    0.00 
 242   22:00   0.00   72.8    20    1.9   265     2.6   877.1    0.00 
 242   22:10   0.00   72.4    20    1.7   251     2.8   877.1    0.00 
 242   22:20   0.00   72.3    20    2.2   258     3.4   877.0    0.00 
 242   22:30   0.00   72.5    20    1.7   219     2.8   877.0    0.00 
 242   22:40   0.00   72.9    20    2.6   199     3.9   876.9    0.00 
 242   22:50   0.00   71.8    20    2.9   279     4.7   876.9    0.00 
 242   23:00   0.00   72.4    20    2.2   267     2.7   876.9    0.00 
 242   23:10   100.00  99999.0   99999  99999.0   99999   99999.0   99999.0   99999.00 
 242   23:20   100.00  99999.0   99999  99999.0   99999   99999.0   99999.0   99999.00 
 242   23:30   100.00  99999.0   99999  99999.0   99999   99999.0   99999.0   99999.00 
 242   23:40   100.00  99999.0   99999  99999.0   99999   99999.0   99999.0   99999.00 
 242   23:50   100.00  99999.0   99999  99999.0   99999   99999.0   99999.0   99999.00 
 243    0:00   0.00   71.9    20    2.0   315     4.7   876.7    0.00 
 243    0:10   0.00   72.1    19    2.8   313     5.6   876.5    0.00 
 243    0:20   0.00   72.3    19    2.0   334     3.7   876.5    0.00 
 243    0:30   0.00   71.1    20    1.9   311     3.4   876.4    0.00 
 243    0:40   0.00   71.6    20    1.8   321     3.4   876.4    0.00 
 243    0:50   0.00   71.0    20    1.7   317     3.1   876.3    0.00 
 243    1:00   0.00   71.2    20    2.1   319     4.3   876.3    0.00 
 243    1:10   0.00   71.9    19    3.4   311     4.6   876.3    0.00 
 243    1:20   0.00   71.5    20    3.2   311     5.0   876.3    0.00 
 243    1:30   0.00   72.2    19    2.8   310     4.8   876.3    0.00 
 243    1:40   0.00   73.1    19    2.2   329     5.2   876.3    0.00 
 243    1:50   0.00   73.1    19    5.2   300     8.0   876.2    0.00 
 243    2:00   0.00   74.7    18    4.8   301     7.8   876.2    0.00 
 243    2:10   0.00   75.7    17    5.0   297     7.5   876.3    0.00 
 243    2:20   0.00   75.6    17    5.9   288     8.0   876.3    0.00 
 243    2:30   0.00   77.2    16    6.1   294     9.3   876.3    0.00 
 243    2:40   0.00   76.3    17    6.1   300     9.0   876.2    0.00 
 243    2:50   0.00   76.7    17    6.7   299    10.2   876.3    0.00 
 243    3:00   0.00   77.3    16    6.4   294     9.8   876.3    0.00 
 243    3:10   0.00   77.3    16    6.0   299     9.7   876.3    0.00 
 243    3:20   0.00   75.8    18    4.2   311     7.7   876.3    0.00 
 243    3:30   0.00   74.0    19    4.2   299     6.9   876.2    0.00 
 243    3:40   0.00   73.8    19    3.9   310     6.6   876.2    0.00 
 243    3:50   0.00   73.1    19    4.4   306     5.8   876.2    0.00 
 243    4:00   0.00   71.9    20    5.2   311     8.8   876.2    0.00 
 243    4:10   0.00   72.7    19    5.0   303     7.3   876.2    0.00 
 243    4:20   0.00   72.8    19    4.5   301     6.9   876.2    0.00 
 243    4:30   0.00   73.3    19    5.5   302     7.6   876.2    0.00 
 243    4:40   0.00   73.7    19    5.4   299     7.8   876.2    0.00 
 243    4:50   0.00   73.5    19    5.5   299     8.0   876.2    0.00 
 243    5:00   0.00   74.5    18    5.2   300     7.4   876.2    0.00 
 243    5:10   0.00   74.0    19    5.4   298     8.0   876.3    0.00 
 243    5:20   0.00   74.6    18    5.9   296     8.3   876.4    0.00 
 243    5:30   0.01   73.8    19    5.1   303     7.4   876.5    0.00 
 243    5:40   0.01   73.0    19    5.1   306     7.2   876.5    0.00 
 243    5:50   0.01   74.4    18    5.6   304     7.7   876.5    0.00 
 243    6:00   0.03   75.2    18    4.9   308     6.7   876.6    0.00 
 243    6:10   0.03   76.4    17    5.5   318     9.2   876.7    0.00 
 243    6:20   0.13   79.5    15    6.6   325     8.8   876.7    0.00 
 243    6:30   0.17   81.8    14    6.7   328    10.7   876.8    0.00 
 243    6:40   0.20   82.9    13    7.6   324    11.2   876.9    0.00 
 243    6:50   0.24   84.0    13    7.7   324    10.7   876.9    0.00 
 243    7:00   0.28   85.1    12    7.9   326    11.0   877.0    0.00 
 243    7:10   0.31   86.5    12    8.2   328    12.4   877.2    0.00 
 243    7:20   0.35   87.5    11    7.6   330    11.2   877.3    0.00 
 243    7:30   0.39   88.7    11    7.4   336    12.3   877.3    0.00 
 243    7:40   0.42   89.3    11    5.7     0    10.4   877.3    0.00 
 243    7:50   0.46   88.8    11    4.8    81     9.3   877.4    0.00 
 243    8:00   0.49   88.4    11    3.5    76     6.9   877.4    0.00 
 243    8:10   0.53   88.2    11    4.1    64     8.0   877.5    0.00 
 243    8:20   0.56   89.4    11    3.7    43     7.6   877.5    0.00 
 243    8:30   0.59   90.3    10    4.9    35    12.1   877.4    0.00 
 243    8:40   0.62   90.2    10    5.7    28    15.3   877.3    0.00 
 243    8:50   0.66   90.4    10    7.7     8    14.8   877.3    0.00 
 243    9:00   0.69   90.7    10    6.4    18    15.2   877.4    0.00 
 243    9:10   0.72   90.9    10   10.0   355    17.2   877.3    0.00 
 243    9:20   0.74   91.5    10    9.0   352    17.5   877.3    0.00 
 243    9:30   0.76   91.0    10    8.4    42    15.6   877.2    0.00 
 243    9:40   0.79   92.2    10    8.9   353    15.6   877.2    0.00 
 243    9:50   0.81   92.6    10    8.5    11    17.4   877.1    0.00 
 243   10:00   0.83   91.8    10    7.4    29    17.3   877.1    0.00 
 243   10:10   0.85   92.0    10    7.0    34    16.7   877.1    0.00 
 243   10:20   0.86   92.7    11    7.6    19    17.2   877.0    0.00 
 243   10:30   0.88   92.6    11    6.7    40    12.9   876.9    0.00 
 243   10:40   0.89   94.1    11    5.8   359    13.5   876.9    0.00 
 243   10:50   0.91   92.6    11    6.6    62    12.3   876.9    0.00 
 243   11:00   0.92   92.6    11    4.6    55    10.9   876.7    0.00 
 243   11:10   0.92   93.7    11    6.1    51    13.9   876.6    0.00 
 243   11:20   0.94   94.4    11    4.0    68    11.6   876.5    0.00 
 243   11:30   0.94   93.4    11    5.2    83    10.0   876.4    0.00 
 243   11:40   0.94   92.7    12    6.6    52    12.3   876.4    0.00 
 243   11:50   0.94   93.8    11    3.1    48    13.4   876.3    0.00 
 243   12:00   0.92   93.7    12    5.1    51    13.2   876.2    0.00 
 243   12:10   0.94   93.8    12    6.8    56    14.8   876.1    0.00 
 243   12:20   0.94   94.1    12    6.0    54    12.2   876.0    0.00 
 243   12:30   0.93   94.2    11    5.1    73    10.9   875.9    0.00 
 243   12:40   0.92   94.1    12    8.0   128    15.4   875.7    0.00 
 243   12:50   0.91   94.7    11    8.0    63    14.1   875.7    0.00 
 243   13:00   0.90   94.7    11    5.9    60    13.7   875.6    0.00 
 243   13:10   0.89   94.6    11    6.7    56    11.9   875.5    0.00 
 243   13:20   0.87   95.6    11    5.4    57    12.9   875.4    0.00 
 243   13:30   0.85   95.1    11    6.1    93    13.0   875.2    0.00 
 243   13:40   0.83   95.5    11    5.7   107    11.2   875.1    0.00 
 243   13:50   0.81   94.6    11    5.4    71    10.0   875.0    0.00 
 243   14:00   0.79   95.2    11    6.1    55    13.0   874.9    0.00 
 243   14:10   0.79   95.6    11    5.8    27    13.7   874.8    0.00 
 243   14:20   0.73   95.3    11    6.2    24    12.6   874.7    0.00 
 243   14:30   0.57   95.0    11    5.9   347    11.2   874.6    0.00 
 243   14:40   0.56   94.1    11    3.3    58     8.9   874.6    0.00 
 243   14:50   0.68   96.7    10    3.6   121     9.1   874.5    0.00 
 243   15:00   0.65   96.5    10    3.4   120     9.6   874.4    0.00 
 243   15:10   0.47   95.3    11    8.0   123    14.4   874.4    0.00 
 243   15:20   0.60   94.9    11    4.2   164     8.6   874.4    0.00 
 243   15:30   0.57   96.0    11    2.9   279     8.3   874.3    0.00 
 243   15:40   0.53   97.2    10    2.0   186    11.2   874.2    0.00 
 243   15:50   0.50   96.6    11    4.2   165    12.2   874.2    0.00 
 243   16:00   0.48   95.8    11    5.9   120    14.9   874.2    0.00 
 243   16:10   0.43   95.0    11    5.5    95    10.4   874.2    0.00 
 243   16:20   0.40   94.2    11    6.9   116    13.1   874.1    0.00 
 243   16:30   0.35   93.8    11    5.2    98     9.4   874.1    0.00 
 243   16:40   0.32   95.3    11    2.9    95     8.3   874.0    0.00 
 243   16:50   0.29   94.7    11    5.2   108     9.9   874.0    0.00 
 243   17:00   0.25   94.6    11    6.1   135    10.7   874.0    0.00 
 243   17:10   0.20   93.8    12    5.6   143    10.2   873.9    0.00 
 243   17:20   0.11   92.3    12    5.1   194     9.9   873.9    0.00 
 243   17:30   0.09   90.6    13    5.5   158    11.5   873.9    0.00 
 243   17:40   0.07   90.4    14    4.4   187    11.0   874.0    0.00 
 243   17:50   0.04   88.8    14    5.6   179    12.1   874.2    0.00 
 243   18:00   0.02   88.0    15    3.9   206     8.5   874.3    0.00 

Return to Burns Pinion Ridge Reserve graphs page.


Western Regional Climate Center,wrcc@dri.edu